createdAt,value
2019-03-06T00:00:15.228Z,96325.28
2019-03-06T00:01:25.949Z,96324.45
2019-03-06T00:02:33.090Z,96326.56
2019-03-06T00:03:40.308Z,96331.33
2019-03-06T00:04:47.469Z,96328.76
2019-03-06T00:05:54.618Z,96327.92
2019-03-06T00:07:01.770Z,96321.21
2019-03-06T00:08:09.872Z,96320.30
2019-03-06T00:09:17.060Z,96322.87
2019-03-06T00:10:27.849Z,96314.78
2019-03-06T00:11:34.988Z,96313.58
2019-03-06T00:12:42.591Z,96318.72
2019-03-06T00:13:49.910Z,96320.09
2019-03-06T00:14:57.043Z,96321.83
2019-03-06T00:16:04.407Z,96320.16
2019-03-06T00:17:12.737Z,96323.56
2019-03-06T00:18:20.628Z,96320.16
2019-03-06T00:19:27.798Z,96321.91
2019-03-06T00:20:34.881Z,96321.00
2019-03-06T00:21:42.085Z,96317.52
2019-03-06T00:22:49.695Z,96318.34
2019-03-06T00:23:56.846Z,96315.70
2019-03-06T00:25:04.458Z,96318.27
2019-03-06T00:26:11.686Z,96318.19
2019-03-06T00:27:18.827Z,96322.41
2019-03-06T00:28:25.923Z,96320.59
2019-03-06T00:29:33.079Z,96319.23
2019-03-06T00:30:40.421Z,96316.12
2019-03-06T00:31:48.163Z,96314.27
2019-03-06T00:32:55.313Z,96312.45
2019-03-06T00:34:02.475Z,96311.91
2019-03-06T00:35:15.203Z,96315.59
2019-03-06T00:36:24.135Z,96314.69
2019-03-06T00:37:31.613Z,96315.97
2019-03-06T00:38:38.775Z,96315.52
2019-03-06T00:39:54.129Z,96316.72
2019-03-06T00:41:21.276Z,96312.86
2019-03-06T00:42:28.497Z,96315.44
2019-03-06T00:43:35.619Z,96308.51
2019-03-06T00:44:42.878Z,96312.81
2019-03-06T00:45:50.265Z,96311.53
2019-03-06T00:46:57.418Z,96312.73
2019-03-06T00:48:04.700Z,96309.25
2019-03-06T00:49:11.845Z,96310.91
2019-03-06T00:50:19.007Z,96310.83
2019-03-06T00:51:26.162Z,96308.44
2019-03-06T00:52:33.313Z,96307.16
2019-03-06T00:53:40.935Z,96313.04
2019-03-06T00:54:48.080Z,96311.25
2019-03-06T00:55:55.246Z,96307.69
2019-03-06T00:57:02.403Z,96307.23
2019-03-06T00:58:11.250Z,96305.86
2019-03-06T00:59:18.393Z,96309.26
2019-03-06T01:00:26.038Z,96303.75
2019-03-06T01:01:33.249Z,96302.83
2019-03-06T01:02:40.415Z,96307.97
2019-03-06T01:03:47.996Z,96302.63
2019-03-06T01:04:55.146Z,96303.84
2019-03-06T01:06:02.303Z,96299.06
2019-03-06T01:07:10.530Z,96300.73
2019-03-06T01:08:17.719Z,96292.47
2019-03-06T01:09:24.864Z,96301.39
2019-03-06T01:10:32.020Z,96293.59
2019-03-06T01:11:40.981Z,96291.39
2019-03-06T01:12:48.149Z,96292.59
2019-03-06T01:13:55.301Z,96285.80
2019-03-06T01:15:02.443Z,96290.02
2019-03-06T01:16:10.669Z,96287.33
2019-03-06T01:17:17.811Z,96284.67
2019-03-06T01:18:25.490Z,96283.77
2019-03-06T01:19:32.640Z,96285.42
2019-03-06T01:20:39.812Z,96277.70
2019-03-06T01:21:47.024Z,96272.65
2019-03-06T01:22:54.172Z,96275.67
2019-03-06T01:24:01.321Z,96273.30
2019-03-06T01:25:09.222Z,96270.81
2019-03-06T01:26:16.389Z,96267.05
2019-03-06T01:27:23.587Z,96266.30
2019-03-06T01:28:30.698Z,96271.45
2019-03-06T01:29:37.846Z,96262.45
2019-03-06T01:30:44.999Z,96260.33
2019-03-06T01:31:52.567Z,96258.22
2019-03-06T01:33:15.162Z,96264.64
2019-03-06T01:34:41.203Z,96259.50
2019-03-06T01:35:55.296Z,96260.79
2019-03-06T01:37:08.126Z,96261.16
2019-03-06T01:38:37.223Z,96258.05
2019-03-06T01:40:09.160Z,96254.73
2019-03-06T01:41:35.585Z,96258.96
2019-03-06T01:42:56.278Z,96248.77
2019-03-06T01:44:16.796Z,96253.82
2019-03-06T01:45:23.947Z,96251.98
2019-03-06T01:46:31.405Z,96247.59
2019-03-06T01:47:38.574Z,96246.96
2019-03-06T01:48:45.732Z,96248.50
2019-03-06T01:49:52.902Z,96248.50
2019-03-06T01:51:01.043Z,96248.05
2019-03-06T01:52:08.186Z,96247.33
2019-03-06T01:53:16.161Z,96247.50
2019-03-06T01:54:23.329Z,96245.48
2019-03-06T01:55:31.455Z,96245.11
2019-03-06T01:56:38.602Z,96246.11
2019-03-06T01:57:47.298Z,96242.79
2019-03-06T01:58:54.458Z,96244.56
2019-03-06T02:00:01.609Z,96236.94
2019-03-06T02:01:09.777Z,96233.91
2019-03-06T02:02:16.937Z,96239.42
2019-03-06T02:03:24.110Z,96236.36
2019-03-06T02:04:31.257Z,96237.19
2019-03-06T02:05:38.739Z,96234.53
2019-03-06T02:06:45.961Z,96234.91
2019-03-06T02:07:53.111Z,96230.13
2019-03-06T02:09:00.870Z,96233.45
2019-03-06T02:10:11.200Z,96230.24
2019-03-06T02:11:18.429Z,96233.44
2019-03-06T02:12:25.590Z,96232.44
2019-03-06T02:13:32.743Z,96230.61
2019-03-06T02:14:39.915Z,96225.75
2019-03-06T02:15:47.074Z,96225.20
2019-03-06T02:16:54.222Z,96226.86
2019-03-06T02:18:01.383Z,96229.89
2019-03-06T02:19:09.360Z,96220.06
2019-03-06T02:20:17.869Z,96225.20
2019-03-06T02:21:25.016Z,96224.09
2019-03-06T02:22:32.098Z,96229.41
2019-03-06T02:23:39.325Z,96230.41
2019-03-06T02:24:46.560Z,96225.02
2019-03-06T02:25:53.707Z,96224.73
2019-03-06T02:27:00.847Z,96229.88
2019-03-06T02:28:08.337Z,96228.22
2019-03-06T02:29:15.537Z,96223.08
2019-03-06T02:30:23.272Z,96228.67
2019-03-06T02:31:30.419Z,96223.53
2019-03-06T02:32:37.577Z,96225.64
2019-03-06T02:33:44.746Z,96226.93
2019-03-06T02:34:51.886Z,96225.64
2019-03-06T02:35:59.701Z,96225.36
2019-03-06T02:37:06.866Z,96223.33
2019-03-06T02:38:14.008Z,96220.94
2019-03-06T02:39:21.270Z,96222.42
2019-03-06T02:40:28.811Z,96225.99
2019-03-06T02:41:35.958Z,96222.85
2019-03-06T02:42:45.134Z,96224.34
2019-03-06T02:43:52.277Z,96220.28
2019-03-06T02:44:59.447Z,96228.59
2019-03-06T02:46:06.865Z,96227.09
2019-03-06T02:47:14.020Z,96220.79
2019-03-06T02:48:22.262Z,96217.39
2019-03-06T02:49:29.440Z,96208.48
2019-03-06T02:50:36.601Z,96209.31
2019-03-06T02:51:43.746Z,96202.05
2019-03-06T02:52:50.902Z,96203.71
2019-03-06T02:53:58.062Z,96206.66
2019-03-06T02:55:05.435Z,96206.28
2019-03-06T02:56:12.575Z,96205.45
2019-03-06T02:57:19.723Z,96209.31
2019-03-06T02:59:00.879Z,96204.34
2019-03-06T03:00:38.319Z,96204.42
2019-03-06T03:01:59.458Z,96197.34
2019-03-06T03:03:25.525Z,96194.84
2019-03-06T03:04:37.230Z,96194.55
2019-03-06T03:05:51.896Z,96191.16
2019-03-06T03:07:03.055Z,96191.53
2019-03-06T03:08:10.362Z,96187.67
2019-03-06T03:09:19.900Z,96192.28
2019-03-06T03:10:27.063Z,96191.36
2019-03-06T03:11:34.199Z,96194.73
2019-03-06T03:12:41.927Z,96193.36
2019-03-06T03:13:49.126Z,96192.91
2019-03-06T03:14:56.270Z,96197.95
2019-03-06T03:16:03.430Z,96202.19
2019-03-06T03:17:10.588Z,96199.53
2019-03-06T03:18:17.739Z,96200.45
2019-03-06T03:19:24.893Z,96197.05
2019-03-06T03:20:32.047Z,96195.77
2019-03-06T03:21:39.211Z,96190.54
2019-03-06T03:22:46.345Z,96190.54
2019-03-06T03:23:53.565Z,96190.17
2019-03-06T03:25:00.694Z,96188.88
2019-03-06T03:26:07.837Z,96186.77
2019-03-06T03:27:14.991Z,96189.80
2019-03-06T03:28:22.194Z,96190.54
2019-03-06T03:29:29.261Z,96193.40
2019-03-06T03:30:36.399Z,96195.80
2019-03-06T03:31:43.855Z,96198.17
2019-03-06T03:32:51.018Z,96196.63
2019-03-06T03:33:58.188Z,96199.41
2019-03-06T03:35:06.073Z,96191.48
2019-03-06T03:36:13.339Z,96198.06
2019-03-06T03:37:20.496Z,96189.72
2019-03-06T03:38:27.671Z,96188.23
2019-03-06T03:39:34.833Z,96183.46
2019-03-06T03:40:41.990Z,96180.72
2019-03-06T03:41:49.150Z,96179.80
2019-03-06T03:42:56.499Z,96188.26
2019-03-06T03:44:03.655Z,96192.48
2019-03-06T03:45:12.069Z,96195.88
2019-03-06T03:46:19.216Z,96194.23
2019-03-06T03:47:26.369Z,96190.45
2019-03-06T03:48:33.679Z,96194.77
2019-03-06T03:49:40.854Z,96190.63
2019-03-06T03:50:48.064Z,96189.80
2019-03-06T03:51:55.221Z,96184.29
2019-03-06T03:53:02.383Z,96186.95
2019-03-06T03:54:09.563Z,96185.41
2019-03-06T03:55:16.742Z,96185.49
2019-03-06T03:56:23.906Z,96183.47
2019-03-06T03:57:31.263Z,96178.47
2019-03-06T03:58:38.374Z,96183.61
2019-03-06T03:59:45.507Z,96185.44
2019-03-06T04:00:52.683Z,96177.35
2019-03-06T04:01:59.844Z,96179.47
2019-03-06T04:03:06.998Z,96181.58
2019-03-06T04:04:14.162Z,96182.32
2019-03-06T04:05:21.321Z,96179.23
2019-03-06T04:06:28.477Z,96176.58
2019-03-06T04:07:35.622Z,96176.13
2019-03-06T04:08:42.787Z,96169.61
2019-03-06T04:09:50.293Z,96176.04
2019-03-06T04:10:57.441Z,96173.47
2019-03-06T04:12:04.592Z,96162.81
2019-03-06T04:13:11.736Z,96170.16
2019-03-06T04:14:18.908Z,96169.33
2019-03-06T04:15:26.072Z,96168.19
2019-03-06T04:16:34.185Z,96166.61
2019-03-06T04:17:41.331Z,96167.53
2019-03-06T04:18:48.504Z,96167.27
2019-03-06T04:19:56.320Z,96167.36
2019-03-06T04:21:03.787Z,96173.78
2019-03-06T04:22:11.075Z,96172.13
2019-03-06T04:23:18.246Z,96177.72
2019-03-06T04:24:25.400Z,96185.52
2019-03-06T04:25:32.543Z,96186.52
2019-03-06T04:26:39.687Z,96184.58
2019-03-06T04:27:46.859Z,96182.66
2019-03-06T04:28:54.028Z,96177.86
2019-03-06T04:30:01.181Z,96180.14
2019-03-06T04:31:08.390Z,96184.66
2019-03-06T04:32:15.533Z,96189.50
2019-03-06T04:33:23.272Z,96185.27
2019-03-06T04:34:30.503Z,96179.84
2019-03-06T04:35:37.638Z,96180.47
2019-03-06T04:36:44.780Z,96179.38
2019-03-06T04:37:51.909Z,96179.63
2019-03-06T04:39:00.068Z,96185.39
2019-03-06T04:40:07.830Z,96180.91
2019-03-06T04:41:14.956Z,96179.70
2019-03-06T04:42:22.115Z,96172.17
2019-03-06T04:43:29.427Z,96169.77
2019-03-06T04:44:36.750Z,96167.28
2019-03-06T04:45:44.197Z,96163.17
2019-03-06T04:46:51.526Z,96165.81
2019-03-06T04:47:58.940Z,96166.73
2019-03-06T04:49:06.716Z,96168.55
2019-03-06T04:50:14.362Z,96170.37
2019-03-06T04:51:21.803Z,96171.73
2019-03-06T04:52:29.137Z,96174.46
2019-03-06T04:53:36.552Z,96172.84
2019-03-06T04:54:43.974Z,96177.22
2019-03-06T04:55:51.513Z,96180.70
2019-03-06T04:56:59.899Z,96186.66
2019-03-06T04:58:07.460Z,96181.53
2019-03-06T04:59:14.769Z,96176.77
2019-03-06T05:00:22.250Z,96171.18
2019-03-06T05:01:29.777Z,96164.77
2019-03-06T05:02:37.271Z,96165.59
2019-03-06T05:03:44.905Z,96164.84
2019-03-06T05:04:52.249Z,96168.78
2019-03-06T05:05:59.707Z,96158.75
2019-03-06T05:07:07.239Z,96152.16
2019-03-06T05:08:15.394Z,96153.97
2019-03-06T05:09:22.534Z,96151.20
2019-03-06T05:10:29.729Z,96156.41
2019-03-06T05:11:36.861Z,96157.69
2019-03-06T05:12:44.818Z,96158.14
2019-03-06T05:13:51.954Z,96156.03
2019-03-06T05:14:59.036Z,96147.96
2019-03-06T05:16:06.196Z,96149.24
2019-03-06T05:17:31.996Z,96145.39
2019-03-06T05:19:04.318Z,96147.13
2019-03-06T05:20:11.506Z,96147.86
2019-03-06T05:21:18.662Z,96150.83
2019-03-06T05:22:25.880Z,96155.95
2019-03-06T05:23:32.961Z,96154.75
2019-03-06T05:24:40.111Z,96155.20
2019-03-06T05:25:48.205Z,96154.86
2019-03-06T05:26:55.389Z,96155.31
2019-03-06T05:28:02.535Z,96152.75
2019-03-06T05:29:09.696Z,96144.68
2019-03-06T05:30:17.854Z,96140.53
2019-03-06T05:31:25.400Z,96139.70
2019-03-06T05:32:37.775Z,96138.05
2019-03-06T05:33:44.844Z,96138.05
2019-03-06T05:34:52.985Z,96138.95
2019-03-06T05:36:53.823Z,96139.04
2019-03-06T05:38:27.860Z,96137.83
2019-03-06T05:39:35.028Z,96138.34
2019-03-06T05:40:42.168Z,96134.84
2019-03-06T05:41:49.313Z,96126.31
2019-03-06T05:42:56.445Z,96129.22
2019-03-06T05:44:03.582Z,96138.05
2019-03-06T05:45:10.852Z,96143.09
2019-03-06T05:46:17.986Z,96141.81
2019-03-06T05:47:25.177Z,96136.68
2019-03-06T05:48:34.246Z,96134.12
2019-03-06T05:49:41.404Z,96137.14
2019-03-06T05:50:48.557Z,96134.57
2019-03-06T05:51:55.630Z,96132.46
2019-03-06T05:53:02.815Z,96136.23
2019-03-06T05:54:09.973Z,96131.09
2019-03-06T05:55:17.944Z,96138.80
2019-03-06T05:56:25.114Z,96135.77
2019-03-06T05:57:32.279Z,96133.66
2019-03-06T05:58:39.421Z,96131.92
2019-03-06T05:59:47.580Z,96137.89
2019-03-06T06:00:54.746Z,96137.43
2019-03-06T06:02:03.329Z,96137.43
2019-03-06T06:03:10.471Z,96125.44
2019-03-06T06:04:17.619Z,96125.89
2019-03-06T06:05:24.783Z,96127.70
2019-03-06T06:06:31.846Z,96126.05
2019-03-06T06:07:38.987Z,96121.91
2019-03-06T06:08:46.060Z,96120.73
2019-03-06T06:09:53.119Z,96122.92
2019-03-06T06:11:00.229Z,96121.34
2019-03-06T06:12:07.380Z,96121.50
2019-03-06T06:13:14.564Z,96125.80
2019-03-06T06:14:21.711Z,96119.09
2019-03-06T06:15:28.852Z,96121.73
2019-03-06T06:16:36.020Z,96117.17
2019-03-06T06:17:43.169Z,96119.81
2019-03-06T06:18:50.301Z,96119.89
2019-03-06T06:19:57.374Z,96121.63
2019-03-06T06:21:41.856Z,96115.67
2019-03-06T06:23:10.965Z,96118.69
2019-03-06T06:24:22.338Z,96113.76
2019-03-06T06:25:30.688Z,96116.55
2019-03-06T06:26:39.034Z,96118.66
2019-03-06T06:27:46.197Z,96117.00
2019-03-06T06:28:53.333Z,96119.56
2019-03-06T06:30:00.515Z,96123.33
2019-03-06T06:31:07.672Z,96120.31
2019-03-06T06:32:15.407Z,96123.25
2019-03-06T06:33:22.546Z,96117.30
2019-03-06T06:34:29.700Z,96117.59
2019-03-06T06:35:37.757Z,96115.04
2019-03-06T06:36:45.101Z,96114.58
2019-03-06T06:37:52.261Z,96110.74
2019-03-06T06:38:59.334Z,96101.23
2019-03-06T06:40:07.232Z,96097.84
2019-03-06T06:41:14.388Z,96101.23
2019-03-06T06:42:21.530Z,96098.22
2019-03-06T06:43:28.605Z,96097.77
2019-03-06T06:44:35.776Z,96098.22
2019-03-06T06:45:42.835Z,96097.77
2019-03-06T06:46:50.261Z,96102.06
2019-03-06T06:48:22.022Z,96096.94
2019-03-06T06:49:29.158Z,96096.11
2019-03-06T06:50:36.480Z,96091.37
2019-03-06T06:52:50.426Z,96092.66
2019-03-06T06:54:09.254Z,96093.56
2019-03-06T06:56:07.559Z,96090.52
2019-03-06T06:58:08.968Z,96088.03
2019-03-06T06:59:59.565Z,96087.43
2019-03-06T07:02:17.717Z,96081.73
2019-03-06T07:04:17.432Z,96076.72
2019-03-06T07:05:49.639Z,96071.83
2019-03-06T07:07:14.440Z,96062.48
2019-03-06T07:08:38.990Z,96068.86
2019-03-06T07:10:03.662Z,96053.71
2019-03-06T07:11:48.799Z,96049.16
2019-03-06T07:13:24.192Z,96046.28
2019-03-06T07:14:59.683Z,96045.67
2019-03-06T07:16:25.770Z,96053.09
2019-03-06T07:17:47.779Z,96051.16
2019-03-06T07:19:05.909Z,96052.55
2019-03-06T07:20:32.449Z,96052.62
2019-03-06T07:21:57.162Z,96051.89
2019-03-06T07:23:22.076Z,96056.25
2019-03-06T07:24:57.614Z,96054.44
2019-03-06T07:26:22.584Z,96059.64
2019-03-06T07:27:51.709Z,96055.42
2019-03-06T07:29:10.453Z,96053.23
2019-03-06T07:30:36.151Z,96054.25
2019-03-06T07:32:05.707Z,96050.91
2019-03-06T07:33:43.913Z,96042.86
2019-03-06T07:36:07.269Z,96036.50
2019-03-06T07:37:28.255Z,96033.95
2019-03-06T07:38:29.158Z,96030.79
2019-03-06T07:39:58.989Z,96024.67
2019-03-06T07:41:40.377Z,96028.08
2019-03-06T07:42:55.212Z,96024.73
2019-03-06T07:44:30.389Z,96021.92
2019-03-06T07:46:05.774Z,96031.28
2019-03-06T07:47:31.777Z,96038.61
2019-03-06T07:49:05.554Z,96031.33
2019-03-06T07:50:39.549Z,96037.00
2019-03-06T07:52:20.969Z,96028.39
2019-03-06T07:53:59.646Z,96028.68
2019-03-06T07:55:22.477Z,96029.34
2019-03-06T07:56:43.154Z,96028.34
2019-03-06T07:58:44.190Z,96022.92
2019-03-06T07:59:52.472Z,96025.06
2019-03-06T08:00:59.612Z,96024.95
2019-03-06T08:02:14.924Z,96024.32
2019-03-06T08:03:46.372Z,96024.31
2019-03-06T08:04:54.909Z,96035.81
2019-03-06T08:06:02.094Z,96037.92
2019-03-06T08:07:13.028Z,96034.43
2019-03-06T08:08:20.176Z,96029.23
2019-03-06T08:09:27.376Z,96030.41
2019-03-06T08:10:36.176Z,96028.19
2019-03-06T08:11:51.614Z,96026.38
2019-03-06T08:13:04.720Z,96026.30
2019-03-06T08:14:31.157Z,96028.51
2019-03-06T08:15:53.506Z,96030.14
2019-03-06T08:17:19.815Z,96020.22
2019-03-06T08:18:37.002Z,96028.00
2019-03-06T08:19:59.491Z,96028.45
2019-03-06T08:21:37.950Z,96022.45
2019-03-06T08:23:04.293Z,96019.80
2019-03-06T08:24:22.583Z,96031.98
2019-03-06T08:25:43.936Z,96027.66
2019-03-06T08:26:51.141Z,96019.39
2019-03-06T08:27:58.484Z,96019.85
2019-03-06T08:29:05.660Z,96020.40
2019-03-06T08:30:13.247Z,96017.42
2019-03-06T08:31:51.123Z,96009.78
2019-03-06T08:32:58.289Z,96017.83
2019-03-06T08:34:05.437Z,96006.98
2019-03-06T08:35:12.815Z,96010.00
2019-03-06T08:36:20.153Z,96004.91
2019-03-06T08:37:27.305Z,96004.05
2019-03-06T08:38:34.506Z,96002.72
2019-03-06T08:39:41.866Z,95994.94
2019-03-06T08:40:49.046Z,95994.09
2019-03-06T08:41:56.334Z,95990.99
2019-03-06T08:43:03.486Z,95988.95
2019-03-06T08:44:10.666Z,95982.08
2019-03-06T08:45:20.198Z,95982.14
2019-03-06T08:46:49.554Z,95982.21
2019-03-06T08:48:05.886Z,95975.44
2019-03-06T08:49:31.931Z,95972.77
2019-03-06T08:50:58.003Z,95985.45
2019-03-06T08:52:22.718Z,95973.22
2019-03-06T08:53:39.355Z,95978.86
2019-03-06T08:55:04.098Z,95969.02
2019-03-06T08:56:39.311Z,95964.13
2019-03-06T08:57:56.160Z,95965.41
2019-03-06T08:59:26.559Z,95968.92
2019-03-06T09:01:01.472Z,95969.08
2019-03-06T09:02:18.694Z,95957.48
2019-03-06T09:03:55.095Z,95968.05
2019-03-06T09:05:31.072Z,95966.69
2019-03-06T09:07:10.725Z,95957.36
2019-03-06T09:08:38.586Z,95972.12
2019-03-06T09:10:04.641Z,95963.72
2019-03-06T09:11:21.934Z,95965.47
2019-03-06T09:12:36.881Z,95961.30
2019-03-06T09:13:55.355Z,95960.85
2019-03-06T09:15:30.770Z,95956.57
2019-03-06T09:17:05.929Z,95972.89
2019-03-06T09:18:38.270Z,95957.77
2019-03-06T09:20:00.329Z,95958.49
2019-03-06T09:21:19.701Z,95951.83
2019-03-06T09:22:45.532Z,95952.77
2019-03-06T09:24:14.872Z,95956.33
2019-03-06T09:25:34.630Z,95947.66
2019-03-06T09:26:59.597Z,95945.08
2019-03-06T09:28:23.486Z,95953.55
2019-03-06T09:29:36.895Z,95949.20
2019-03-06T09:30:53.599Z,95948.06
2019-03-06T09:32:09.777Z,95942.55
2019-03-06T09:33:35.824Z,95947.03
2019-03-06T09:34:58.312Z,95938.15
2019-03-06T09:36:33.437Z,95936.86
2019-03-06T09:37:59.690Z,95930.55
2019-03-06T09:39:29.158Z,95927.16
2019-03-06T09:40:52.419Z,95937.16
2019-03-06T09:42:21.220Z,95918.30
2019-03-06T09:43:53.926Z,95917.11
2019-03-06T09:45:26.097Z,95921.80
2019-03-06T09:46:54.926Z,95924.88
2019-03-06T09:48:17.976Z,95926.17
2019-03-06T09:49:42.869Z,95934.66
2019-03-06T09:50:59.877Z,95927.66
2019-03-06T09:52:26.998Z,95918.75
2019-03-06T09:53:46.983Z,95938.62
2019-03-06T09:55:13.198Z,95938.50
2019-03-06T09:56:28.666Z,95927.69
2019-03-06T09:58:06.681Z,95926.66
2019-03-06T09:59:28.014Z,95930.41
2019-03-06T10:00:45.893Z,95931.47
2019-03-06T10:02:21.019Z,95905.75
2019-03-06T10:03:47.137Z,95917.37
2019-03-06T10:05:01.860Z,95911.97
2019-03-06T10:06:15.612Z,95906.81
2019-03-06T10:07:41.204Z,95904.67
2019-03-06T10:08:57.156Z,95901.98
2019-03-06T10:10:26.418Z,95895.61
2019-03-06T10:11:42.391Z,95891.38
2019-03-06T10:12:58.761Z,95896.80
2019-03-06T10:14:31.025Z,95894.06
2019-03-06T10:15:52.345Z,95887.59
2019-03-06T10:17:30.471Z,95885.80
2019-03-06T10:19:14.441Z,95881.56
2019-03-06T10:20:25.300Z,95878.63
2019-03-06T10:21:32.980Z,95876.13
2019-03-06T10:22:40.176Z,95882.03
2019-03-06T10:23:48.974Z,95873.16
2019-03-06T10:24:56.199Z,95871.47
2019-03-06T10:26:03.387Z,95864.74
2019-03-06T10:27:12.025Z,95856.56
2019-03-06T10:28:27.498Z,95857.69
2019-03-06T10:29:28.046Z,95859.66
2019-03-06T10:30:35.220Z,95857.38
2019-03-06T10:31:42.396Z,95856.53
2019-03-06T10:32:49.625Z,95857.77
2019-03-06T10:33:56.800Z,95870.83
2019-03-06T10:35:03.958Z,95871.75
2019-03-06T10:36:11.834Z,95862.41
2019-03-06T10:37:19.005Z,95863.92
2019-03-06T10:38:26.152Z,95872.27
2019-03-06T10:39:33.348Z,95853.88
2019-03-06T10:40:40.498Z,95860.42
2019-03-06T10:41:47.646Z,95859.83
2019-03-06T10:42:56.337Z,95857.45
2019-03-06T10:44:04.560Z,95861.70
2019-03-06T10:45:13.000Z,95864.16
2019-03-06T10:46:20.238Z,95856.38
2019-03-06T10:47:27.485Z,95861.09
2019-03-06T10:48:34.666Z,95861.28
2019-03-06T10:49:41.822Z,95856.45
2019-03-06T10:50:48.981Z,95844.66
2019-03-06T10:51:56.208Z,95847.13
2019-03-06T10:53:03.586Z,95847.34
2019-03-06T10:54:10.748Z,95851.02
2019-03-06T10:55:18.353Z,95847.66
2019-03-06T10:56:25.494Z,95842.91
2019-03-06T10:57:33.984Z,95849.14
2019-03-06T10:58:42.163Z,95839.64
2019-03-06T10:59:49.620Z,95840.69
2019-03-06T11:00:56.795Z,95851.62
2019-03-06T11:02:04.360Z,95849.91
2019-03-06T11:03:11.810Z,95843.39
2019-03-06T11:04:46.733Z,95847.24
2019-03-06T11:05:55.068Z,95845.05
2019-03-06T11:07:02.438Z,95840.68
2019-03-06T11:08:09.773Z,95851.97
2019-03-06T11:09:16.936Z,95855.59
2019-03-06T11:10:26.822Z,95830.18
2019-03-06T11:11:33.564Z,95825.68
2019-03-06T11:12:40.785Z,95836.41
2019-03-06T11:13:47.941Z,95827.80
2019-03-06T11:14:55.148Z,95828.36
2019-03-06T11:16:03.228Z,95830.00
2019-03-06T11:17:10.794Z,95826.32
2019-03-06T11:18:18.639Z,95816.59
2019-03-06T11:19:25.919Z,95819.75
2019-03-06T11:20:34.155Z,95811.56
2019-03-06T11:21:41.324Z,95821.73
2019-03-06T11:22:49.028Z,95817.09
2019-03-06T11:23:56.301Z,95810.69
2019-03-06T11:25:04.169Z,95807.45
2019-03-06T11:26:11.802Z,95807.52
2019-03-06T11:27:19.092Z,95801.23
2019-03-06T11:28:26.271Z,95803.44
2019-03-06T11:29:33.563Z,95803.85
2019-03-06T11:30:49.473Z,95801.67
2019-03-06T11:31:56.745Z,95794.88
2019-03-06T11:33:04.466Z,95797.55
2019-03-06T11:34:12.582Z,95793.24
2019-03-06T11:35:21.923Z,95786.78
2019-03-06T11:36:29.179Z,95794.03
2019-03-06T11:37:37.009Z,95797.52
2019-03-06T11:38:44.400Z,95786.34
2019-03-06T11:39:51.546Z,95781.42
2019-03-06T11:40:59.440Z,95786.03
2019-03-06T11:42:08.014Z,95776.18
2019-03-06T11:43:16.591Z,95771.52
2019-03-06T11:44:23.771Z,95771.25
2019-03-06T11:45:31.143Z,95774.49
2019-03-06T11:46:38.459Z,95760.05
2019-03-06T11:47:45.890Z,95777.78
2019-03-06T11:48:53.125Z,95774.70
2019-03-06T11:50:00.329Z,95780.72
2019-03-06T11:51:07.683Z,95775.99
2019-03-06T11:52:14.846Z,95774.36
2019-03-06T11:53:22.325Z,95761.70
2019-03-06T11:54:29.484Z,95765.94
2019-03-06T11:55:37.489Z,95760.88
2019-03-06T11:56:44.728Z,95753.56
2019-03-06T11:57:52.997Z,95748.98
2019-03-06T11:59:00.194Z,95751.27
2019-03-06T12:00:14.958Z,95747.65
2019-03-06T12:01:25.020Z,95745.19
2019-03-06T12:02:32.415Z,95747.58
2019-03-06T12:03:39.624Z,95741.91
2019-03-06T12:04:47.025Z,95740.27
2019-03-06T12:05:55.693Z,95745.33
2019-03-06T12:07:02.935Z,95740.95
2019-03-06T12:08:13.478Z,95748.41
2019-03-06T12:09:32.967Z,95739.78
2019-03-06T12:10:40.308Z,95730.83
2019-03-06T12:11:47.492Z,95737.91
2019-03-06T12:12:54.893Z,95738.05
2019-03-06T12:14:02.077Z,95725.67
2019-03-06T12:15:11.719Z,95727.45
2019-03-06T12:16:21.007Z,95736.07
2019-03-06T12:17:28.170Z,95721.92
2019-03-06T12:18:35.384Z,95720.28
2019-03-06T12:19:42.568Z,95714.94
2019-03-06T12:20:50.802Z,95713.98
2019-03-06T12:21:58.393Z,95714.80
2019-03-06T12:23:06.252Z,95710.42
2019-03-06T12:24:13.433Z,95710.28
2019-03-06T12:25:20.587Z,95706.87
2019-03-06T12:26:27.908Z,95695.51
2019-03-06T12:27:35.135Z,95701.05
2019-03-06T12:28:42.950Z,95689.63
2019-03-06T12:29:50.605Z,95689.16
2019-03-06T12:30:58.165Z,95686.69
2019-03-06T12:32:07.150Z,95691.07
2019-03-06T12:33:28.583Z,95692.03
2019-03-06T12:34:35.765Z,95684.52
2019-03-06T12:35:42.970Z,95681.06
2019-03-06T12:36:50.441Z,95682.50
2019-03-06T12:37:57.835Z,95683.46
2019-03-06T12:39:05.995Z,95669.66
2019-03-06T12:40:15.617Z,95679.23
2019-03-06T12:41:22.992Z,95676.28
2019-03-06T12:42:30.239Z,95675.95
2019-03-06T12:43:38.085Z,95669.25
2019-03-06T12:44:45.239Z,95655.27
2019-03-06T12:46:23.968Z,95654.80
2019-03-06T12:47:28.860Z,95655.89
2019-03-06T12:48:36.203Z,95651.22
2019-03-06T12:49:43.667Z,95663.05
2019-03-06T12:50:55.940Z,95653.81
2019-03-06T12:51:59.721Z,95649.10
2019-03-06T12:53:07.056Z,95650.23
2019-03-06T12:54:14.244Z,95644.41
2019-03-06T12:55:21.401Z,95624.45
2019-03-06T12:56:28.705Z,95627.73
2019-03-06T12:57:36.232Z,95625.48
2019-03-06T12:58:43.719Z,95620.28
2019-03-06T12:59:52.265Z,95624.52
2019-03-06T13:00:59.463Z,95615.42
2019-03-06T13:02:06.708Z,95614.61
2019-03-06T13:03:13.920Z,95621.92
2019-03-06T13:04:21.191Z,95607.30
2019-03-06T13:05:28.370Z,95607.77
2019-03-06T13:06:35.526Z,95604.35
2019-03-06T13:07:42.694Z,95599.64
2019-03-06T13:08:50.883Z,95595.27
2019-03-06T13:09:58.221Z,95594.44
2019-03-06T13:11:05.665Z,95596.56
2019-03-06T13:12:12.944Z,95592.19
2019-03-06T13:13:20.742Z,95593.00
2019-03-06T13:14:30.451Z,95590.06
2019-03-06T13:15:36.988Z,95588.77
2019-03-06T13:16:44.261Z,95585.35
2019-03-06T13:17:52.952Z,95581.94
2019-03-06T13:19:00.380Z,95581.45
2019-03-06T13:20:10.742Z,95570.10
2019-03-06T13:21:18.058Z,95569.62
2019-03-06T13:22:25.297Z,95561.35
2019-03-06T13:23:32.477Z,95566.06
2019-03-06T13:24:39.635Z,95562.84
2019-03-06T13:25:46.825Z,95558.13
2019-03-06T13:26:53.999Z,95554.58
2019-03-06T13:28:01.150Z,95555.05
2019-03-06T13:29:09.478Z,95554.58
2019-03-06T13:30:17.061Z,95550.34
2019-03-06T13:31:26.212Z,95559.43
2019-03-06T13:32:48.828Z,95553.08
2019-03-06T13:34:13.198Z,95548.50
2019-03-06T13:35:20.628Z,95545.37
2019-03-06T13:36:27.843Z,95548.70
2019-03-06T13:37:35.219Z,95546.11
2019-03-06T13:38:42.402Z,95546.11
2019-03-06T13:39:49.563Z,95545.15
2019-03-06T13:40:56.745Z,95544.19
2019-03-06T13:42:05.192Z,95548.42
2019-03-06T13:43:12.660Z,95541.45
2019-03-06T13:44:20.021Z,95537.89
2019-03-06T13:45:27.287Z,95528.47
2019-03-06T13:46:34.651Z,95536.73
2019-03-06T13:47:42.040Z,95523.55
2019-03-06T13:48:49.526Z,95519.66
2019-03-06T13:49:57.136Z,95526.97
2019-03-06T13:51:04.303Z,95521.44
2019-03-06T13:52:11.784Z,95516.72
2019-03-06T13:53:20.989Z,95520.13
2019-03-06T13:54:28.142Z,95514.27
2019-03-06T13:55:35.525Z,95517.00
2019-03-06T13:56:42.745Z,95516.16
2019-03-06T13:57:50.061Z,95510.95
2019-03-06T13:58:58.366Z,95507.91
2019-03-06T14:00:07.706Z,95512.48
2019-03-06T14:01:15.705Z,95508.11
2019-03-06T14:02:24.249Z,95505.99
2019-03-06T14:03:31.781Z,95505.99
2019-03-06T14:04:39.636Z,95506.33
2019-03-06T14:05:47.239Z,95517.54